createdAt,value
2024-02-29T00:01:24.285Z,61.3
2024-02-29T00:06:47.368Z,61.3
2024-02-29T00:12:26.373Z,61.3
2024-02-29T00:18:05.245Z,61.1
2024-02-29T00:23:44.089Z,61.1
2024-02-29T00:29:07.829Z,61.1
2024-02-29T00:34:46.504Z,61
2024-02-29T00:40:41.620Z,61
2024-02-29T00:46:20.786Z,60.9
2024-02-29T00:51:59.775Z,60.9
2024-02-29T00:57:38.726Z,60.8
2024-02-29T01:03:02.637Z,60.8
2024-02-29T01:08:41.047Z,60.7
2024-02-29T01:14:20.191Z,60.7
2024-02-29T01:19:58.796Z,60.6
2024-02-29T01:25:25.465Z,60.6
2024-02-29T01:31:03.600Z,60.5
2024-02-29T01:36:54.719Z,60.4
2024-02-29T01:42:33.531Z,60.4
2024-02-29T01:47:56.606Z,60.3
2024-02-29T01:53:36.485Z,60.3
2024-02-29T01:59:18.912Z,60.3
2024-02-29T02:04:57.752Z,60.2
2024-02-29T02:10:37.420Z,60.1
2024-02-29T02:16:00.211Z,60.1
2024-02-29T02:21:08.153Z,60.1
2024-02-29T02:26:31.380Z,60
2024-02-29T02:31:54.567Z,59.9
2024-02-29T02:37:17.182Z,59.9
2024-02-29T02:42:24.803Z,59.9
2024-02-29T02:47:47.802Z,60.6
2024-02-29T02:53:11.400Z,61.2
2024-02-29T02:58:34.570Z,61.6
2024-02-29T03:04:13.364Z,61.8
2024-02-29T03:09:51.921Z,62.1
2024-02-29T03:15:31.239Z,62.7
2024-02-29T03:21:10.099Z,62.8
2024-02-29T03:26:48.633Z,63.2
2024-02-29T03:32:27.402Z,63.2
2024-02-29T03:38:06.158Z,63.2
2024-02-29T03:43:44.589Z,63.2
2024-02-29T03:49:23.757Z,63.1
2024-02-29T03:55:02.183Z,63.1
2024-02-29T04:00:40.775Z,63.1
2024-02-29T04:06:20.058Z,63
2024-02-29T04:11:58.831Z,63
2024-02-29T04:17:37.490Z,62.9
2024-02-29T04:23:16.207Z,62.9
2024-02-29T04:28:55.143Z,62.9
2024-02-29T04:34:33.930Z,62.8
2024-02-29T04:40:12.859Z,62.8
2024-02-29T04:45:51.254Z,62.8
2024-02-29T04:51:14.086Z,62.7
2024-02-29T04:56:53.349Z,62.6
2024-02-29T05:02:32.578Z,62.6
2024-02-29T05:08:11.161Z,62.6
2024-02-29T05:13:36.626Z,62.5
2024-02-29T05:19:14.964Z,62.4
2024-02-29T05:24:53.545Z,62.4
2024-02-29T05:30:32.542Z,62.4
2024-02-29T05:36:13.246Z,62.3
2024-02-29T05:41:52.344Z,62.3
2024-02-29T05:47:35.415Z,62.2
2024-02-29T05:52:58.280Z,62.2
2024-02-29T05:58:36.770Z,62.1
2024-02-29T06:04:16.296Z,62.1
2024-02-29T06:09:56.642Z,62.1
2024-02-29T06:15:35.234Z,62
2024-02-29T06:21:14.503Z,61.9
2024-02-29T06:26:53.378Z,61.9
2024-02-29T06:32:32.726Z,61.9
2024-02-29T06:38:11.966Z,61.8
2024-02-29T06:43:35.629Z,61.8
2024-02-29T06:49:14.904Z,61.7
2024-02-29T06:54:54.177Z,61.6
2024-02-29T07:00:34.126Z,61.6
2024-02-29T07:06:12.942Z,61.6
2024-02-29T07:11:52.390Z,61.5
2024-02-29T07:17:32.090Z,61.4
2024-02-29T07:23:10.927Z,61.4
2024-02-29T07:28:34.889Z,61.4
2024-02-29T07:33:59.030Z,61.3
2024-02-29T07:39:38.427Z,61.3
2024-02-29T07:45:02.796Z,61.3
2024-02-29T07:50:44.730Z,61.2
2024-02-29T07:56:27.088Z,61.1
2024-02-29T08:02:08.058Z,61.1
2024-02-29T08:07:48.316Z,61.1
2024-02-29T08:13:27.636Z,61
2024-02-29T08:19:10.117Z,60.9
2024-02-29T08:24:49.138Z,60.9
2024-02-29T08:30:12.661Z,60.9
2024-02-29T08:35:53.956Z,60.8
2024-02-29T08:41:32.519Z,60.8
2024-02-29T08:47:11.339Z,60.7
2024-02-29T08:52:50.995Z,60.7
2024-02-29T08:58:29.142Z,60.6
2024-02-29T09:04:08.896Z,60.6
2024-02-29T09:09:50.037Z,60.5
2024-02-29T09:15:43.937Z,60.4
2024-02-29T09:21:23.723Z,60.4
2024-02-29T09:26:51.165Z,60.4
2024-02-29T09:32:33.981Z,60.3
2024-02-29T09:38:17.065Z,60.3
2024-02-29T09:44:32.379Z,60.3
2024-02-29T09:50:22.031Z,60.2
2024-02-29T09:56:03.129Z,60.1
2024-02-29T10:01:30.326Z,60.1
2024-02-29T10:07:12.436Z,60.1
2024-02-29T10:12:55.461Z,60
2024-02-29T10:18:36.616Z,59.9
2024-02-29T10:24:15.327Z,59.9
2024-02-29T10:29:55.992Z,59.9
2024-02-29T10:35:37.128Z,59.8
2024-02-29T10:41:16.005Z,59.8
2024-02-29T10:46:55.261Z,59.7
2024-02-29T10:52:19.344Z,59.7
2024-02-29T10:57:59.645Z,59.6
2024-02-29T11:03:38.639Z,59.6
2024-02-29T11:09:17.713Z,59.5
2024-02-29T11:14:56.884Z,59.5
2024-02-29T11:20:15.979Z,59.4
2024-02-29T11:26:03.929Z,59.4
2024-02-29T11:31:42.649Z,59.3
2024-02-29T11:37:23.294Z,59.3
2024-02-29T11:43:14.650Z,59.3
2024-02-29T11:48:38.204Z,59.2
2024-02-29T11:54:22.019Z,59.2
2024-02-29T12:00:15.497Z,59.1
2024-02-29T12:05:56.061Z,59.1
2024-02-29T12:11:39.273Z,59.1
2024-02-29T12:17:19.195Z,59
2024-02-29T12:22:46.065Z,58.9
2024-02-29T12:28:25.957Z,58.9
2024-02-29T12:34:06.650Z,58.9
2024-02-29T12:39:47.253Z,58.8
2024-02-29T12:45:27.148Z,58.8
2024-02-29T12:51:08.082Z,58.8
2024-02-29T12:56:49.050Z,58.7
2024-02-29T13:02:32.898Z,58.7
2024-02-29T13:18:56.200Z,58.5
2024-02-29T13:24:36.281Z,58.5
2024-02-29T13:30:04.590Z,58.4
2024-02-29T13:35:47.105Z,58.4
2024-02-29T13:41:26.516Z,58.3
2024-02-29T13:46:50.331Z,58.3
2024-02-29T13:52:47.382Z,58.3
2024-02-29T13:58:11.486Z,58.2
2024-02-29T14:03:36.247Z,58.2
2024-02-29T14:09:15.515Z,58.1
2024-02-29T14:14:55.230Z,58.1
2024-02-29T14:20:37.344Z,58
2024-02-29T14:26:01.151Z,58
2024-02-29T14:31:41.956Z,58
2024-02-29T14:37:21.142Z,57.9
2024-02-29T14:43:00.634Z,57.9
2024-02-29T14:48:40.374Z,57.8
2024-02-29T14:54:21.188Z,57.8
2024-02-29T15:05:27.047Z,57.7
2024-02-29T15:11:06.833Z,57.6
2024-02-29T15:16:50.611Z,57.6
2024-02-29T15:22:14.891Z,57.6
2024-02-29T15:27:38.122Z,57.5
2024-02-29T15:33:18.030Z,57.5
2024-02-29T15:39:00.233Z,57.4
2024-02-29T15:44:39.463Z,57.4
2024-02-29T15:50:22.277Z,57.4
2024-02-29T15:55:46.002Z,57.3
2024-02-29T16:01:27.884Z,57.3
2024-02-29T16:07:09.559Z,57.3
2024-02-29T16:12:32.806Z,57.2
2024-02-29T16:18:00.171Z,57.1
2024-02-29T16:23:39.822Z,57.1
2024-02-29T16:29:18.971Z,57.1
2024-02-29T16:35:01.032Z,57
2024-02-29T16:40:39.676Z,56.9
2024-02-29T16:46:22.508Z,56.9
2024-02-29T16:52:01.916Z,56.9
2024-02-29T16:57:41.522Z,56.8
2024-02-29T17:03:24.384Z,56.8
2024-02-29T17:09:04.180Z,56.8
2024-02-29T17:14:46.326Z,56.7
2024-02-29T17:20:12.316Z,56.6
2024-02-29T17:25:51.567Z,56.6
2024-02-29T17:31:30.622Z,56.6
2024-02-29T17:36:54.356Z,56.5
2024-02-29T17:42:35.717Z,56.5
2024-02-29T17:48:14.911Z,56.4
2024-02-29T17:53:56.024Z,56.4
2024-02-29T17:59:35.611Z,56.3
2024-02-29T18:05:16.317Z,56.3
2024-02-29T18:11:03.883Z,56.3
2024-02-29T18:16:43.268Z,56.2
2024-02-29T18:22:23.166Z,56.2
2024-02-29T18:28:02.569Z,56.1
2024-02-29T18:33:41.844Z,56.1
2024-02-29T18:39:21.664Z,56.1
2024-02-29T18:45:01.521Z,56
2024-02-29T18:50:54.913Z,55.9
2024-02-29T18:56:36.530Z,55.9
2024-02-29T19:02:18.275Z,55.9
2024-02-29T19:08:01.000Z,55.8
2024-02-29T19:13:40.724Z,55.8
2024-02-29T19:18:48.183Z,55.8
2024-02-29T19:24:15.165Z,55.7
2024-02-29T19:29:54.934Z,55.7
2024-02-29T19:35:33.832Z,55.6
2024-02-29T19:41:16.341Z,55.6
2024-02-29T19:46:56.642Z,55.6
2024-02-29T19:52:20.227Z,55.5
2024-02-29T19:57:44.027Z,55.4
2024-02-29T20:03:24.487Z,55.4
2024-02-29T20:08:48.267Z,55.4
2024-02-29T20:14:12.207Z,55.3
2024-02-29T20:19:38.595Z,55.3
2024-02-29T20:24:46.551Z,55.3
2024-02-29T20:29:57.129Z,55.2
2024-02-29T20:35:38.105Z,55.2
2024-02-29T20:41:02.588Z,55.1
2024-02-29T20:46:26.927Z,55.1
2024-02-29T20:51:35.812Z,55.1
2024-02-29T20:56:59.736Z,55
2024-02-29T21:02:08.017Z,55
2024-02-29T21:07:16.206Z,54.9
2024-02-29T21:12:40.984Z,54.9
2024-02-29T21:18:04.679Z,54.8
2024-02-29T21:23:28.627Z,54.8
2024-02-29T21:28:51.702Z,54.8
2024-02-29T21:34:18.528Z,54.8
2024-02-29T21:39:50.180Z,54.7
2024-02-29T21:45:16.162Z,54.6
2024-02-29T21:50:54.868Z,54.6
2024-02-29T21:56:34.200Z,54.5
2024-02-29T22:02:13.335Z,54.5
2024-02-29T22:07:38.687Z,54.4
2024-02-29T22:13:20.759Z,54.4
2024-02-29T22:19:03.040Z,54.4
2024-02-29T22:24:41.948Z,54.3
2024-02-29T22:30:05.941Z,54.3
2024-02-29T22:35:45.390Z,54.3
2024-02-29T22:41:24.292Z,54.2
2024-02-29T22:47:15.576Z,54.2
2024-02-29T22:52:54.851Z,54.1
2024-02-29T22:58:33.954Z,54.1
2024-02-29T23:04:19.467Z,54
2024-02-29T23:09:59.016Z,54
2024-02-29T23:15:23.061Z,53.9
2024-02-29T23:20:47.176Z,53.9
2024-02-29T23:26:31.993Z,53.9
2024-02-29T23:32:14.149Z,53.8
2024-02-29T23:37:53.795Z,53.8
2024-02-29T23:43:17.465Z,53.8
2024-02-29T23:48:56.005Z,53.7
2024-02-29T23:54:35.290Z,53.7
